Timeline UpdatesTrip UpdatesNews PostsPvt PostsTravel TipsAdmin PostsConv PostsFollowed PostsChat RequestsBlog PostsPNR Posts

Disclaimer
Search
 
 
Tue Sep 23, 2014 23:52:25 ISTHomeTrainsΣChainsAtlasPNRForumGalleryNewsFAQTripsMembersLoginFeedback
No Recent News for this Train
Other Trains in the News **new
Latest...
One Sleeper and unreserved coach for Mumbai is attached from Nandurbar. These coaches are attached to 59442 Ahmedabad Mumbai passenger at Surat.
Mon Apr 18, 2011 (09:18PM)
⇐ Return Journey: Train# 59441-Slip

59076-Slip/Bhusaval -Mumbai Passenger Slip(Via Surat)

Time-Table HAS CHANGED.
Sep 04 (10:12PM)
Change Departure Station:
Change Arrival Station:
Post a Train Travel TipPost a Train Travel Tip **new
Post a Comment/Question/Picture/VideoPost a Comment/Question/Picture/Video
Pantry/Catering
???
Loco/Rake Reversals
ST/Surat (4);
RSA - Rake Sharing
Rake/Coach Composition
Loco
News    PNR    Forum    Time-Table    Availability    Fare Chart    Map    Arr/Dep History    Trips    Gallery    ΣChains    X/O    Timeline    
Travel Time: 19h 50m    73 halts    Distance: 598 km    Avg Speed: 30 km/hr
Type: Passenger
Zone: WR/Western
Departs @ 08:45 (Avg 10m late)
Platform# ???
SMTWTFS
Bhusaval Junction/BSL 
Arrives @ 04:35 +1 night
Platform# 5
SMTWTFS
Mumbai Central/BCT 

73 halts. 104 intermediate Stations between Bhusaval Junction and Mumbai Central

Show ALL intermediate Stations  Show Old Time-Table

#CodeStation NameX/OArrivesAvgDepartsAvgHaltPFDay#KmSpeedElevZoneAddress
1BSLBhusaval Junction (8)»  -08:45+10--10.058208mCRBhusaval 425201, Maharashtra
2BDIBhadli (2)  08:58+1209:00+112m--112.630211mCRBhadli, Maharashtra
3JLJalgaon Junction (4)  09:23+709:25+112m2124.137213mCRJalgaon 425001, Maharashtra
4PLDPaldhi (2)  09:43+1309:45+142m--135.253208mWRPaldhi, Maharashtra
5CHLKChavalkhedeX  09:58+1410:00+182m--146.727196mWRState Highway 185, Maharashtra
6DXGDharangaon (2)  10:16+1510:18+152m--153.857217mWRDharangaon, Maharashtra
7BHNEBhone (2)  10:26-10:28-2m--161.550196mWRState Highway 185, Maharashtra
8TKHETakarkhede (1)  10:35+1310:37+142m1167.343203mWRState Highway 6, Maharashtra
9ANAmalner (2)  10:53+1110:55+122m1178.740188mWRAmalner, Maharashtra
10BRTKBhortex  11:07+1211:09+122m--186.853180mWRVadhoda, Maharashtra
11PDPPadse  11:18+1311:20+142m--194.748181mWRDhule, Maharashtra
12BEWBetavad (1)X  11:27-11:29-2m11100.258178mWRState Highway 6, Maharashtra
13NDNNardana (1)  11:36+1311:38+142m11107.042184mWRNardana, Maharashtra
14HOLHol (1)  11:45+1611:47+172m11112.063185mWRState Highway 6, Maharashtra
15SNKSindkheda (1)X  11:55+1911:57+212m11120.343178mWRState Highway 11, Maharashtra
16SNSLSonshelu (1)  12:06-12:08-2m11126.748185mWRMSH1, Maharashtra
17VKHVikhran (1)X  12:14+1812:16+182m11131.533176mWRMSH1, Maharashtra
18DDEDondaicha (2)  12:31+1112:33+122m11139.755163mWRDondaicha, Maharashtra
19RNLRanala (1)X  12:46+1112:48+212m11151.733164mWRState Highway 6, Maharashtra
20TISITisi (1)  13:05+1413:07+132m11161.231185mWRState Highway 7, Maharashtra
21CUEChoupale (1) new halt!!X  13:22-113:24+82m--1168.915208mWRNehru Nagar, Maharashtra
22NDBNandurbar (3)X  13:45+314:30+745m--1174.160203mWRNandurbar, Maharashtra
23DWDDhekwad (1)  14:39+1314:41+132m11183.148209mWRState Highway 5, Maharashtra
24KBHKhandbara (1)X  14:58+2015:00+222m11196.753198mWRKhandbara, Maharashtra
25KHTGKhatgaon (1)  15:10+2415:12+252m11205.553178mWRState Highway 5, Maharashtra
26CPDChinchpada (1)  15:23+2615:25+342m11215.348178mWRGangapur, Maharashtra
27KFFKolda (1)  15:33+3415:35+332m11221.639160mWRGangapur, Maharashtra
28NWUNavapur (2)  15:51+2715:53+302m--1232.055124mWRNavapur, Gujarat
29BBAIBhadbhunja (1)  16:05+3316:07+322m11243.125126mWRGujarat 394375 ?, Gujarat
30LKKDLakkad Kot (1)  16:19+3016:21+312m11248.036122mWRGujarat 394375 ?, Gujarat
31USDUkai Songadh (2)  16:33+3016:35+312m11255.239139mWRSongadh, Gujarat
32DSDDosvada (1)  16:42-16:44-2m11259.817121mWRNational Highway 6, Gujarat
33KKRDKikakui Road (1)O  16:53+2716:55+312m11262.416114mWRGujarat 394650 ?, Gujarat
34VYAVyara (2)  17:38+417:40+52m11273.94390mWRVyara, Gujarat
35LTVLotarva (1)  17:49+617:51+52m11280.44657mWRSankr Main Rd, Gujarat
36KRAIKaher (1)X  17:55-17:57-2m11283.54055mWRKaher, Gujarat
37MIDMadhi (1)  18:05+518:07+92m11288.93245mWRMadhi, Gujarat
38MGRLMangrolla (1)  18:17-18:19-2m11294.23336mWRPipariya, Gujarat
39TBVTimbarva (1)  18:24+618:26+72m11296.93435mWRTimberva, Gujarat
40BIYBardoli (2)  18:38+618:40+112m--1303.72135mWRNear Bardoli Sugar Factory Bardoli, Gujarat
41GGARGangadhara (1)X  18:58+519:00+182m11309.91527mWRKareli, Gujarat
42BGMRBagumra (1) new halt!!  19:21-19:23-2m--1315.04422mWRNational Highway 6, Gujarat
43CHMChalthan (1)  19:29+419:31+82m11319.45023mWRKadodra, Gujarat
44NOLNiyol (1)  19:37-19:39-2m11324.42818mWRSurat, Gujarat
45UDNUdhna Junction (3) new halt!!XO  19:53-19:55-2m21330.91616mWRUdhna 394210, Gujarat
46STSurat (4)XOO20:10+521:30+2:3080m41334.93819mWRSurat 395001, Gujarat
47BHETBhestan (2)X  21:44-21:46-2m21343.74913mWRSurat, Gujarat
48SCHSachin (3)XO  21:53-21:55-2m--1349.46611mWRKansad Road Sachin, Gujarat
49MRLMaroli (3)  22:01-22:03-2m--1356.16315mWRMaroli, Gujarat
50NVSNavsari (3)X  22:11-22:13-2m--1364.54614mWRNavsari, Gujarat
51VDHVedchha (3)XO  22:24-22:26-2m--1372.95113mWRNavsari, Gujarat
52ACLAncheli (2)X  22:30-22:32-2m--1376.34620mWRNavsari, Gujarat
53AMLAmalsad (3)  22:37-22:39-2m--1380.15612mWRAmalsad, Gujarat
54BIMBilimora Junction (4)O  22:45-22:47-2m--1385.76811mWRBilimora, Gujarat
55DGIDungri (3)X  22:55-22:57-2m--1394.72320mWRNH 8, Gujarat
56BLValsad (3)X  23:20-23:30-10m31403.66415mWRValsad, Gujarat
57PADPardi (3)X  23:40-23:42-2m--1414.36019mWRValsad, Gujarat
58UVDUdvada (3)  23:48-23:50-2m--1420.35218mWRUdvada, Gujarat
59VAPIVapi (3)XO  00:01-00:02-1m--2429.94827mWRVapi, Gujarat
60KEBKarambeli (2)X  00:10-00:11-1m--2436.34829mWRNational Highway 8, Gujarat
61BLDBhilad (3)X  00:17-00:19-2m--2441.16933mWRBhilad, Gujarat
62SJNSanjan (3)X  00:29-00:31-2m--2452.75422mWRSanjan, Gujarat
63UBRUmbargam Road (3)X  00:37-00:39-2m--2458.16130mWRUmbergaon, Gujarat
64GVDGholvad (4)XO  00:48-00:50-2m--2467.24214mWRGholvad, Maharashtra
65DRDDahanu Road (5)XO  01:06-01:08-2m--2478.45712mWRDahanu, Maharashtra
66VGNVangaon (3)XO  01:21-01:23-2m--2490.76311mWRDist. Palghar, Maharashtra
67BORBoisar (3)X  01:32-01:34-2m32500.14817mWRBoisar Tel.no-02525-266626, Maharashtra
68PLGPalghar (3)X  01:48-01:50-2m--2511.44619mWRPalghar, Maharashtra
69KLVKelve Road (3)O  02:01-02:03-2m--2519.84310mWRDist. Palghar, Maharashtra
70SAHSaphale (2)O  02:12-02:14-2m22526.2348mWRDist. Palghar, Maharashtra
71VRVirar (8)  02:43-02:45-2m--2542.5286mWRDist. Palghar, Maharashtra
72BSRVasai Road (7)  03:03-03:05-2m52550.9587mWRVasai 401202, Maharashtra
73BVIMumbai Borivali (8)  03:23-03:25-2m52568.33719mWRMumbai - 400092, Maharashtra
74DDRMumbai Dadar Western (6)  04:03-04:05-2m52592.1126mWRMumbai, Maharashtra
75BCTMumbai Central (9)•  04:35--52598.0-3mWRMumbai 400008, Maharashtra
Scroll to Top
Scroll to Bottom